createdAt,value
2018-09-11T00:01:23.775Z,5.77
2018-09-11T00:03:52.453Z,5.37
2018-09-11T00:06:21.089Z,5.10
2018-09-11T00:08:49.745Z,5.73
2018-09-11T00:11:18.553Z,5.20
2018-09-11T00:13:47.194Z,5.40
2018-09-11T00:16:15.843Z,4.83
2018-09-11T00:18:44.473Z,5.60
2018-09-11T00:21:13.097Z,5.40
2018-09-11T00:23:41.893Z,5.63
2018-09-11T00:26:10.497Z,5.27
2018-09-11T00:28:39.089Z,6.07
2018-09-11T00:31:07.781Z,5.57
2018-09-11T00:33:36.446Z,4.60
2018-09-11T00:36:05.189Z,5.20
2018-09-11T00:38:33.785Z,5.60
2018-09-11T00:41:02.462Z,4.97
2018-09-11T00:43:31.119Z,5.23
2018-09-11T00:45:59.770Z,5.03
2018-09-11T00:48:28.612Z,5.53
2018-09-11T00:50:57.215Z,5.40
2018-09-11T00:53:25.825Z,5.00
2018-09-11T00:55:54.441Z,5.50
2018-09-11T00:58:23.094Z,5.97
2018-09-11T01:00:51.983Z,5.03
2018-09-11T01:03:20.741Z,5.10
2018-09-11T01:05:49.445Z,5.30
2018-09-11T01:08:18.109Z,5.90
2018-09-11T01:10:46.736Z,5.23
2018-09-11T01:13:15.420Z,5.43
2018-09-11T01:15:44.093Z,4.77
2018-09-11T01:18:12.748Z,5.60
2018-09-11T01:20:41.394Z,5.43
2018-09-11T01:23:10.045Z,5.40
2018-09-11T01:25:38.928Z,5.37
2018-09-11T01:28:07.538Z,5.23
2018-09-11T01:30:36.143Z,6.07
2018-09-11T01:33:04.804Z,6.10
2018-09-11T01:35:33.421Z,5.83
2018-09-11T01:38:02.168Z,5.70
2018-09-11T01:40:30.797Z,4.87
2018-09-11T01:42:59.412Z,6.00
2018-09-11T01:45:28.105Z,5.83
2018-09-11T01:47:56.707Z,6.30
2018-09-11T01:50:25.412Z,5.47
2018-09-11T01:52:54.002Z,5.40
2018-09-11T01:55:22.616Z,5.13
2018-09-11T01:57:51.253Z,4.93
2018-09-11T02:00:20.615Z,5.20
2018-09-11T02:02:49.403Z,5.83
2018-09-11T02:05:18.175Z,5.87
2018-09-11T02:07:46.834Z,5.80
2018-09-11T02:10:15.475Z,4.97
2018-09-11T02:12:44.092Z,4.97
2018-09-11T02:15:12.808Z,5.30
2018-09-11T02:17:41.925Z,4.93
2018-09-11T02:20:10.684Z,4.90
2018-09-11T02:22:39.325Z,5.50
2018-09-11T02:25:07.991Z,5.23
2018-09-11T02:27:36.787Z,5.07
2018-09-11T02:30:05.478Z,5.33
2018-09-11T02:32:34.092Z,5.20
2018-09-11T02:35:02.767Z,5.33
2018-09-11T02:37:31.389Z,5.70
2018-09-11T02:40:01.421Z,5.27
2018-09-11T02:42:30.063Z,5.20
2018-09-11T02:44:58.709Z,5.37
2018-09-11T02:47:27.371Z,6.03
2018-09-11T02:49:55.980Z,5.50
2018-09-11T02:52:24.712Z,5.70
2018-09-11T02:54:53.397Z,5.90
2018-09-11T02:57:22.033Z,5.60
2018-09-11T02:59:50.697Z,4.73
2018-09-11T03:02:19.333Z,5.50
2018-09-11T03:04:48.085Z,5.43
2018-09-11T03:07:16.701Z,5.07
2018-09-11T03:09:45.465Z,5.50
2018-09-11T03:12:14.114Z,5.73
2018-09-11T03:14:42.752Z,5.03
2018-09-11T03:17:11.425Z,5.23
2018-09-11T03:19:40.061Z,5.10
2018-09-11T03:22:08.722Z,4.90
2018-09-11T03:24:37.371Z,5.33
2018-09-11T03:27:05.994Z,5.10
2018-09-11T03:29:34.653Z,5.23
2018-09-11T03:32:03.702Z,5.40
2018-09-11T03:34:32.311Z,5.57
2018-09-11T03:37:01.152Z,5.47
2018-09-11T03:39:29.811Z,5.47
2018-09-11T03:41:58.506Z,5.90
2018-09-11T03:44:27.128Z,4.83
2018-09-11T03:46:55.741Z,4.70
2018-09-11T03:49:24.404Z,4.93
2018-09-11T03:51:53.068Z,4.77
2018-09-11T03:54:22.078Z,5.57
2018-09-11T03:56:50.973Z,5.40
2018-09-11T03:59:19.705Z,5.30
2018-09-11T04:01:48.370Z,5.80
2018-09-11T04:04:16.984Z,6.07
2018-09-11T04:06:45.694Z,6.10
2018-09-11T04:09:14.325Z,5.87
2018-09-11T04:11:43.339Z,6.00
2018-09-11T04:14:12.217Z,5.47
2018-09-11T04:16:40.938Z,6.17
2018-09-11T04:19:09.674Z,5.70
2018-09-11T04:21:38.317Z,5.70
2018-09-11T04:24:07.022Z,5.90
2018-09-11T04:26:35.785Z,6.20
2018-09-11T04:29:04.633Z,5.63
2018-09-11T04:31:33.324Z,6.57
2018-09-11T04:34:02.115Z,5.60
2018-09-11T04:36:30.935Z,6.17
2018-09-11T04:38:59.573Z,6.10
2018-09-11T04:41:28.190Z,6.20
2018-09-11T04:43:56.878Z,5.83
2018-09-11T04:46:25.542Z,5.90
2018-09-11T04:48:54.311Z,5.43
2018-09-11T04:51:22.930Z,5.20
2018-09-11T04:53:51.575Z,5.57
2018-09-11T04:56:20.222Z,6.03
2018-09-11T04:58:48.901Z,6.43
2018-09-11T05:01:17.658Z,5.97
2018-09-11T05:03:46.273Z,6.13
2018-09-11T05:06:14.900Z,6.60
2018-09-11T05:08:43.554Z,6.43
2018-09-11T05:11:12.201Z,6.17
2018-09-11T05:13:40.985Z,6.63
2018-09-11T05:16:09.611Z,6.90
2018-09-11T05:18:38.226Z,6.33
2018-09-11T05:21:06.925Z,6.93
2018-09-11T05:23:35.570Z,7.67
2018-09-11T05:26:04.448Z,7.47
2018-09-11T05:28:33.061Z,6.90
2018-09-11T05:31:01.688Z,8.70
2018-09-11T05:33:30.346Z,8.70
2018-09-11T05:35:58.984Z,8.33
2018-09-11T05:38:27.849Z,9.77
2018-09-11T05:40:56.489Z,7.87
2018-09-11T05:43:25.117Z,8.17
2018-09-11T05:45:53.817Z,8.20
2018-09-11T05:48:22.480Z,8.60
2018-09-11T05:50:51.162Z,7.57
2018-09-11T05:53:19.797Z,9.27
2018-09-11T05:55:48.438Z,9.13
2018-09-11T05:58:23.853Z,9.53
2018-09-11T06:00:52.925Z,8.57
2018-09-11T06:03:21.574Z,8.17
2018-09-11T06:05:50.258Z,9.27
2018-09-11T06:08:18.940Z,8.07
2018-09-11T06:10:50.521Z,8.67
2018-09-11T06:13:19.207Z,7.17
2018-09-11T06:15:47.863Z,7.47
2018-09-11T06:18:16.510Z,7.00
2018-09-11T06:20:45.181Z,8.23
2018-09-11T06:23:13.834Z,8.43
2018-09-11T06:25:42.522Z,7.20
2018-09-11T06:28:11.191Z,6.93
2018-09-11T06:30:39.897Z,7.50
2018-09-11T06:33:08.679Z,6.23
2018-09-11T06:35:40.365Z,6.13
2018-09-11T06:38:09.065Z,7.47
2018-09-11T06:40:37.707Z,6.43
2018-09-11T06:43:06.445Z,6.20
2018-09-11T06:45:35.153Z,7.23
2018-09-11T06:48:03.797Z,5.90
2018-09-11T06:50:32.600Z,6.00
2018-09-11T06:53:01.235Z,5.53
2018-09-11T06:55:29.834Z,5.80
2018-09-11T06:57:58.634Z,5.47
2018-09-11T07:00:27.262Z,5.43
2018-09-11T07:02:56.051Z,5.47
2018-09-11T07:05:24.680Z,4.80
2018-09-11T07:07:53.315Z,5.47
2018-09-11T07:10:21.975Z,4.93
2018-09-11T07:12:50.599Z,5.33
2018-09-11T07:15:19.271Z,5.20
2018-09-11T07:17:47.910Z,5.60
2018-09-11T07:20:16.722Z,5.23
2018-09-11T07:22:45.245Z,5.00
2018-09-11T07:25:13.874Z,6.63
2018-09-11T07:27:42.633Z,4.90
2018-09-11T07:30:11.315Z,5.23
2018-09-11T07:32:39.962Z,5.63
2018-09-11T07:35:08.631Z,5.50
2018-09-11T07:37:37.469Z,5.00
2018-09-11T07:40:06.341Z,4.13
2018-09-11T07:42:34.970Z,4.83
2018-09-11T07:45:03.609Z,5.00
2018-09-11T07:47:32.285Z,4.83
2018-09-11T07:50:00.890Z,4.93
2018-09-11T07:52:29.623Z,4.43
2018-09-11T07:54:58.254Z,3.50
2018-09-11T07:57:27.188Z,3.70
2018-09-11T07:59:55.866Z,5.27
2018-09-11T08:02:24.493Z,4.10
2018-09-11T08:04:53.328Z,3.40
2018-09-11T08:07:21.952Z,3.50
2018-09-11T08:09:50.664Z,3.87
2018-09-11T08:12:19.334Z,3.30
2018-09-11T08:14:48.014Z,3.87
2018-09-11T08:17:16.921Z,3.40
2018-09-11T08:19:45.597Z,3.23
2018-09-11T08:22:14.213Z,3.90
2018-09-11T08:24:42.846Z,3.67
2018-09-11T08:27:11.478Z,3.53
2018-09-11T08:29:40.353Z,4.30
2018-09-11T08:32:08.989Z,3.53
2018-09-11T08:34:37.640Z,3.53
2018-09-11T08:37:06.304Z,3.10
2018-09-11T08:39:34.953Z,2.70
2018-09-11T08:42:03.849Z,3.27
2018-09-11T08:44:32.481Z,3.43
2018-09-11T08:47:01.112Z,3.10
2018-09-11T08:49:29.764Z,2.87
2018-09-11T08:51:58.411Z,3.57
2018-09-11T08:54:27.165Z,3.30
2018-09-11T08:56:55.797Z,3.23
2018-09-11T08:59:24.437Z,3.47
2018-09-11T09:01:53.137Z,3.27
2018-09-11T09:04:21.749Z,2.90
2018-09-11T09:06:50.448Z,3.07
2018-09-11T09:09:19.077Z,3.10
2018-09-11T09:11:47.691Z,3.20
2018-09-11T09:14:16.334Z,3.10
2018-09-11T09:16:44.962Z,2.67
2018-09-11T09:19:13.617Z,3.20
2018-09-11T09:21:42.229Z,2.87
2018-09-11T09:24:10.839Z,3.00
2018-09-11T09:26:39.477Z,3.03
2018-09-11T09:29:08.084Z,2.80
2018-09-11T09:31:36.975Z,3.30
2018-09-11T09:34:05.641Z,3.03
2018-09-11T09:36:34.349Z,3.50
2018-09-11T09:39:03.231Z,2.83
2018-09-11T09:41:31.854Z,2.73
2018-09-11T09:44:00.674Z,2.87
2018-09-11T09:46:29.286Z,3.07
2018-09-11T09:48:57.975Z,3.07
2018-09-11T09:51:26.612Z,2.97
2018-09-11T09:53:55.224Z,2.80
2018-09-11T09:56:24.166Z,3.03
2018-09-11T09:58:52.797Z,3.13
2018-09-11T10:01:26.601Z,3.10
2018-09-11T10:03:55.249Z,3.50
2018-09-11T10:06:23.905Z,3.30
2018-09-11T10:08:52.552Z,3.23
2018-09-11T10:11:21.186Z,3.17
2018-09-11T10:13:49.809Z,2.73
2018-09-11T10:16:18.425Z,2.80
2018-09-11T10:18:47.297Z,3.23
2018-09-11T10:21:15.901Z,2.53
2018-09-11T10:23:44.585Z,3.27
2018-09-11T10:26:13.194Z,2.63
2018-09-11T10:28:41.824Z,3.00
2018-09-11T10:31:10.445Z,3.17
2018-09-11T10:33:39.346Z,3.17
2018-09-11T10:36:07.906Z,3.47
2018-09-11T10:38:36.541Z,2.93
2018-09-11T10:41:05.281Z,3.10
2018-09-11T10:43:33.930Z,2.90
2018-09-11T10:46:02.626Z,3.00
2018-09-11T10:48:31.301Z,2.80
2018-09-11T10:51:00.019Z,2.60
2018-09-11T10:53:28.665Z,2.87
2018-09-11T10:55:57.305Z,2.43
2018-09-11T10:58:25.986Z,2.60
2018-09-11T11:00:54.598Z,2.60
2018-09-11T11:03:23.249Z,3.10
2018-09-11T11:05:51.916Z,2.70
2018-09-11T11:08:20.530Z,2.27
2018-09-11T11:10:49.181Z,2.83
2018-09-11T11:13:17.818Z,2.33
2018-09-11T11:15:46.429Z,2.47
2018-09-11T11:18:15.072Z,2.47
2018-09-11T11:20:43.696Z,2.90
2018-09-11T11:23:12.350Z,2.53
2018-09-11T11:25:41.035Z,2.40
2018-09-11T11:28:09.653Z,2.50
2018-09-11T11:30:38.306Z,2.87
2018-09-11T11:33:06.955Z,2.27
2018-09-11T11:35:35.637Z,2.80
2018-09-11T11:38:04.323Z,2.50
2018-09-11T11:40:32.972Z,2.30
2018-09-11T11:43:01.625Z,2.40
2018-09-11T11:45:30.277Z,2.30
2018-09-11T11:47:58.919Z,2.00
2018-09-11T11:50:27.576Z,2.00
2018-09-11T11:52:56.253Z,2.40
2018-09-11T11:55:24.961Z,2.10
2018-09-11T11:57:53.578Z,2.40
2018-09-11T12:00:22.242Z,2.10
2018-09-11T12:02:50.841Z,1.80
2018-09-11T12:05:19.508Z,2.40
2018-09-11T12:07:48.186Z,1.97
2018-09-11T12:10:16.812Z,1.80
2018-09-11T12:12:45.434Z,2.30
2018-09-11T12:15:14.190Z,2.80
2018-09-11T12:17:42.827Z,2.23
2018-09-11T12:20:11.445Z,2.50
2018-09-11T12:22:40.065Z,2.30
2018-09-11T12:25:08.718Z,2.23
2018-09-11T12:27:37.382Z,2.07
2018-09-11T12:30:06.092Z,2.00
2018-09-11T12:32:34.721Z,1.90
2018-09-11T12:35:03.393Z,2.93
2018-09-11T12:37:32.001Z,2.50
2018-09-11T12:40:00.673Z,2.10
2018-09-11T12:42:29.273Z,1.90
2018-09-11T12:44:57.895Z,2.87
2018-09-11T12:47:26.982Z,2.07
2018-09-11T12:49:55.215Z,2.20
2018-09-11T12:52:24.094Z,2.13
2018-09-11T12:54:52.781Z,3.13
2018-09-11T12:57:21.421Z,2.20
2018-09-11T12:59:50.089Z,2.33
2018-09-11T13:02:18.784Z,2.07
2018-09-11T13:04:47.466Z,2.50
2018-09-11T13:07:16.081Z,2.30
2018-09-11T13:09:44.713Z,2.37
2018-09-11T13:12:13.343Z,2.20
2018-09-11T13:14:41.949Z,2.03
2018-09-11T13:17:10.741Z,2.27
2018-09-11T13:19:39.365Z,2.53
2018-09-11T13:22:08.010Z,1.80
2018-09-11T13:24:36.686Z,2.03
2018-09-11T13:27:05.286Z,2.23
2018-09-11T13:29:34.012Z,2.00
2018-09-11T13:32:02.777Z,2.67
2018-09-11T13:34:31.370Z,2.07
2018-09-11T13:36:59.993Z,2.03
2018-09-11T13:39:28.637Z,2.27
2018-09-11T13:41:57.596Z,2.00
2018-09-11T13:44:26.221Z,2.13
2018-09-11T13:46:54.862Z,2.30
2018-09-11T13:49:23.496Z,1.60
2018-09-11T13:51:52.384Z,1.70
2018-09-11T13:54:21.174Z,3.27
2018-09-11T13:56:49.789Z,2.23
2018-09-11T13:59:18.421Z,2.70
2018-09-11T14:01:47.054Z,2.30
2018-09-11T14:04:15.665Z,2.30
2018-09-11T14:06:44.319Z,2.00
2018-09-11T14:09:15.221Z,2.33
2018-09-11T14:11:44.563Z,1.97
2018-09-11T14:14:13.494Z,1.60
2018-09-11T14:16:42.134Z,2.30
2018-09-11T14:19:10.915Z,1.83
2018-09-11T14:21:39.573Z,2.00
2018-09-11T14:24:08.177Z,2.03
2018-09-11T14:26:36.872Z,2.20
2018-09-11T14:29:05.538Z,2.40
2018-09-11T14:31:34.177Z,2.37
2018-09-11T14:34:02.809Z,2.40
2018-09-11T14:36:31.451Z,2.57
2018-09-11T14:39:00.062Z,2.07
2018-09-11T14:41:28.682Z,2.23
2018-09-11T14:43:57.328Z,2.33
2018-09-11T14:46:26.919Z,2.30
2018-09-11T14:48:57.334Z,2.37
2018-09-11T14:51:27.663Z,2.40
2018-09-11T14:53:56.956Z,2.13
2018-09-11T14:56:26.328Z,2.27
2018-09-11T14:58:56.021Z,3.10
2018-09-11T15:01:26.297Z,3.00
2018-09-11T15:03:56.513Z,2.13
2018-09-11T15:06:25.913Z,2.47
2018-09-11T15:08:55.301Z,2.50
2018-09-11T15:11:24.869Z,2.30
2018-09-11T15:13:55.436Z,2.60
2018-09-11T15:16:25.312Z,3.10
2018-09-11T15:18:55.224Z,2.70
2018-09-11T15:21:28.728Z,2.90
2018-09-11T15:23:58.276Z,2.50
2018-09-11T15:26:27.760Z,2.37
2018-09-11T15:28:57.075Z,2.70
2018-09-11T15:31:26.420Z,2.77
2018-09-11T15:33:55.833Z,3.10
2018-09-11T15:36:25.439Z,2.60
2018-09-11T15:38:55.631Z,2.20
2018-09-11T15:41:24.987Z,2.27
2018-09-11T15:43:54.768Z,3.27
2018-09-11T15:46:24.145Z,2.40
2018-09-11T15:48:53.463Z,2.60
2018-09-11T15:51:24.682Z,2.43
2018-09-11T15:53:57.819Z,2.20
2018-09-11T15:56:50.801Z,2.33
2018-09-11T16:02:02.731Z,2.53
2018-09-11T16:04:32.198Z,2.53
2018-09-11T16:07:05.251Z,2.40
2018-09-11T16:09:58.365Z,2.80
2018-09-11T16:12:27.870Z,2.30
2018-09-11T16:17:38.197Z,2.53
2018-09-11T16:20:08.216Z,2.93
2018-09-11T16:22:38.618Z,2.77
2018-09-11T16:25:08.791Z,2.50
2018-09-11T16:27:38.198Z,2.70
2018-09-11T16:30:09.918Z,2.37
2018-09-11T16:32:39.220Z,3.87
2018-09-11T16:35:13.248Z,2.73
2018-09-11T16:37:45.292Z,2.50
2018-09-11T16:40:15.297Z,2.80
2018-09-11T16:42:45.822Z,2.60
2018-09-11T16:45:15.871Z,2.73
2018-09-11T16:47:51.919Z,2.53
2018-09-11T16:50:30.208Z,2.53
2018-09-11T16:55:43.308Z,2.33
2018-09-11T16:58:14.433Z,2.53
2018-09-11T17:00:46.676Z,1.90
2018-09-11T17:03:21.232Z,2.80
2018-09-11T17:05:51.719Z,2.37
2018-09-11T17:08:21.109Z,2.43
2018-09-11T17:10:50.396Z,2.10
2018-09-11T17:13:19.661Z,2.40
2018-09-11T17:15:52.352Z,2.53
2018-09-11T17:18:21.644Z,2.43
2018-09-11T17:20:51.047Z,2.57
2018-09-11T17:23:22.244Z,2.23
2018-09-11T17:25:51.555Z,2.93
2018-09-11T17:28:20.938Z,2.63
2018-09-11T17:30:51.022Z,2.90
2018-09-11T17:33:20.225Z,2.50
2018-09-11T17:35:49.768Z,2.13
2018-09-11T17:38:19.035Z,2.87
2018-09-11T17:40:48.311Z,3.00
2018-09-11T17:43:17.814Z,2.73
2018-09-11T17:45:48.233Z,3.00
2018-09-11T17:48:17.628Z,2.63
2018-09-11T17:50:47.070Z,2.87
2018-09-11T17:53:16.586Z,3.10
2018-09-11T17:55:45.936Z,3.00
2018-09-11T17:58:15.077Z,3.17
2018-09-11T18:00:44.385Z,2.50
2018-09-11T18:03:13.812Z,3.07
2018-09-11T18:05:43.032Z,3.20
2018-09-11T18:08:12.346Z,2.97
2018-09-11T18:10:41.609Z,3.23
2018-09-11T18:13:11.384Z,3.10
2018-09-11T18:15:40.611Z,3.07
2018-09-11T18:18:09.949Z,3.07
2018-09-11T18:20:39.489Z,3.33
2018-09-11T18:23:10.062Z,3.10
2018-09-11T18:25:39.693Z,3.00
2018-09-11T18:28:09.177Z,2.97
2018-09-11T18:30:38.593Z,2.83
2018-09-11T18:33:07.952Z,3.40
2018-09-11T18:35:37.143Z,3.80
2018-09-11T18:38:06.895Z,3.40
2018-09-11T18:40:36.548Z,3.87
2018-09-11T18:43:06.328Z,3.20
2018-09-11T18:45:35.761Z,3.30
2018-09-11T18:48:05.648Z,4.17
2018-09-11T18:50:35.178Z,5.70
2018-09-11T18:53:04.743Z,3.90
2018-09-11T18:55:34.096Z,4.27
2018-09-11T18:58:03.671Z,3.73
2018-09-11T19:00:33.210Z,3.80
2018-09-11T19:03:03.396Z,3.77
2018-09-11T19:05:32.880Z,4.50
2018-09-11T19:08:02.900Z,3.50
2018-09-11T19:10:32.431Z,3.70
2018-09-11T19:13:01.832Z,3.23
2018-09-11T19:15:31.407Z,3.97
2018-09-11T19:18:01.020Z,3.40
2018-09-11T19:20:30.515Z,4.87
2018-09-11T19:23:00.019Z,3.60
2018-09-11T19:25:29.709Z,4.40
2018-09-11T19:27:58.967Z,3.97
2018-09-11T19:30:28.520Z,4.50
2018-09-11T19:33:07.982Z,4.40
2018-09-11T19:35:37.638Z,4.30
2018-09-11T19:38:08.570Z,4.33
2018-09-11T19:40:38.646Z,3.97
2018-09-11T19:43:08.585Z,4.33
2018-09-11T19:45:37.961Z,4.33
2018-09-11T19:51:03.837Z,4.50
2018-09-11T19:56:34.574Z,4.33
2018-09-11T19:59:03.539Z,3.90
2018-09-11T20:01:32.287Z,4.77
2018-09-11T20:04:01.053Z,4.20
2018-09-11T20:06:29.703Z,3.97
2018-09-11T20:08:58.318Z,4.80
2018-09-11T20:11:26.942Z,4.97
2018-09-11T20:13:55.630Z,3.97
2018-09-11T20:16:24.252Z,4.63
2018-09-11T20:18:52.996Z,4.00
2018-09-11T20:21:21.624Z,4.33
2018-09-11T20:23:51.720Z,4.63
2018-09-11T20:26:20.751Z,4.50
2018-09-11T20:28:49.552Z,4.27
2018-09-11T20:31:18.304Z,4.40
2018-09-11T20:33:49.156Z,4.57
2018-09-11T20:36:18.114Z,4.93
2018-09-11T20:38:47.619Z,5.50
2018-09-11T20:41:16.833Z,5.13
2018-09-11T20:43:45.680Z,4.40
2018-09-11T20:46:14.864Z,4.30
2018-09-11T20:48:43.969Z,3.97
2018-09-11T20:51:12.723Z,4.57
2018-09-11T20:53:41.365Z,3.70
2018-09-11T20:56:10.069Z,4.33
2018-09-11T20:58:38.708Z,3.87
2018-09-11T21:01:07.369Z,4.17
2018-09-11T21:03:35.999Z,4.60
2018-09-11T21:06:04.626Z,4.27
2018-09-11T21:08:33.234Z,4.13
2018-09-11T21:13:43.810Z,3.83
2018-09-11T21:16:12.459Z,4.40
2018-09-11T21:18:41.196Z,4.47
2018-09-11T21:21:09.810Z,4.40
2018-09-11T21:23:38.513Z,4.30
2018-09-11T21:26:07.177Z,4.33
2018-09-11T21:28:35.855Z,4.87
2018-09-11T21:31:04.493Z,4.87
2018-09-11T21:33:33.134Z,4.97
2018-09-11T21:36:01.829Z,4.83
2018-09-11T21:38:30.519Z,5.37
2018-09-11T21:41:02.169Z,5.60
2018-09-11T21:43:30.789Z,5.13
2018-09-11T21:45:59.439Z,4.47
2018-09-11T21:48:28.113Z,5.63
2018-09-11T21:50:56.774Z,4.63
2018-09-11T21:53:25.437Z,4.27
2018-09-11T21:55:54.070Z,4.87
2018-09-11T21:58:22.769Z,4.57
2018-09-11T22:00:56.702Z,4.63
2018-09-11T22:03:25.353Z,4.80
2018-09-11T22:05:54.009Z,4.33
2018-09-11T22:08:22.678Z,4.60
2018-09-11T22:10:51.281Z,4.70
2018-09-11T22:13:19.918Z,4.53
2018-09-11T22:15:48.563Z,4.40
2018-09-11T22:18:17.193Z,4.50
2018-09-11T22:20:52.898Z,4.13
2018-09-11T22:23:21.554Z,5.20
2018-09-11T22:25:50.261Z,4.40
2018-09-11T22:28:18.889Z,4.77
2018-09-11T22:30:47.514Z,4.30
2018-09-11T22:33:16.238Z,4.50
2018-09-11T22:35:44.920Z,4.70
2018-09-11T22:38:13.563Z,4.17
2018-09-11T22:40:42.200Z,5.63
2018-09-11T22:43:10.866Z,4.73
2018-09-11T22:45:39.654Z,4.00
2018-09-11T22:48:08.322Z,4.57
2018-09-11T22:50:37.002Z,4.83
2018-09-11T22:53:05.793Z,4.70
2018-09-11T22:55:34.406Z,4.63
2018-09-11T22:58:03.239Z,5.10
2018-09-11T23:00:31.872Z,4.73
2018-09-11T23:03:00.500Z,4.70
2018-09-11T23:05:29.162Z,4.60
2018-09-11T23:07:57.813Z,4.93
2018-09-11T23:10:26.424Z,4.87
2018-09-11T23:12:55.090Z,4.57
2018-09-11T23:15:23.715Z,4.63
2018-09-11T23:17:52.384Z,4.30
2018-09-11T23:20:21.019Z,4.43
2018-09-11T23:22:49.637Z,4.40
2018-09-11T23:25:18.316Z,4.37
2018-09-11T23:27:46.946Z,4.23
2018-09-11T23:30:15.589Z,4.30
2018-09-11T23:32:44.182Z,5.03
2018-09-11T23:35:12.825Z,5.40
2018-09-11T23:37:41.514Z,5.10
2018-09-11T23:40:10.210Z,5.00
2018-09-11T23:42:38.858Z,5.20
2018-09-11T23:45:07.587Z,4.80
2018-09-11T23:47:36.217Z,5.40
2018-09-11T23:50:05.246Z,4.80
2018-09-11T23:52:33.863Z,4.70
2018-09-11T23:55:02.550Z,4.63
2018-09-11T23:57:31.291Z,4.80
2018-09-11T23:59:59.917Z,5.03
